sensor_id;sensor_type;location;lat;lon;timestamp;temperature;humidity
3756;DHT22;1893;52.526;13.360;2023-01-28T00:01:08;-0.50;99.90
3756;DHT22;1893;52.526;13.360;2023-01-28T00:03:34;-0.50;99.90
3756;DHT22;1893;52.526;13.360;2023-01-28T00:06:05;-0.50;99.90
3756;DHT22;1893;52.526;13.360;2023-01-28T00:08:31;-0.60;1.00
3756;DHT22;1893;52.526;13.360;2023-01-28T00:10:59;-0.60;1.00
3756;DHT22;1893;52.526;13.360;2023-01-28T00:13:25;-0.60;1.00
3756;DHT22;1893;52.526;13.360;2023-01-28T00:15:58;-0.60;1.00
3756;DHT22;1893;52.526;13.360;2023-01-28T00:18:28;-0.60;1.00
3756;DHT22;1893;52.526;13.360;2023-01-28T00:21:11;-0.70;1.00
3756;DHT22;1893;52.526;13.360;2023-01-28T00:23:38;-0.70;1.00
3756;DHT22;1893;52.526;13.360;2023-01-28T00:26:10;-0.70;1.00
3756;DHT22;1893;52.526;13.360;2023-01-28T00:28:36;-0.80;1.00
3756;DHT22;1893;52.526;13.360;2023-01-28T00:31:06;-0.90;1.00
3756;DHT22;1893;52.526;13.360;2023-01-28T00:33:34;-0.90;1.00
3756;DHT22;1893;52.526;13.360;2023-01-28T00:36:00;-0.90;1.00
3756;DHT22;1893;52.526;13.360;2023-01-28T00:38:27;-1.00;1.00
3756;DHT22;1893;52.526;13.360;2023-01-28T00:40:53;-1.00;58.10
3756;DHT22;1893;52.526;13.360;2023-01-28T00:43:19;-1.00;99.90
3756;DHT22;1893;52.526;13.360;2023-01-28T00:45:44;-1.00;99.90
3756;DHT22;1893;52.526;13.360;2023-01-28T00:48:10;-1.00;99.90
3756;DHT22;1893;52.526;13.360;2023-01-28T00:50:36;-1.00;99.90
3756;DHT22;1893;52.526;13.360;2023-01-28T00:53:01;-0.90;99.90
3756;DHT22;1893;52.526;13.360;2023-01-28T00:55:27;-1.00;99.90
3756;DHT22;1893;52.526;13.360;2023-01-28T00:57:53;-1.00;99.90
3756;DHT22;1893;52.526;13.360;2023-01-28T01:00:19;-1.00;99.90
3756;DHT22;1893;52.526;13.360;2023-01-28T01:02:51;-1.10;99.90
3756;DHT22;1893;52.526;13.360;2023-01-28T01:05:17;-1.10;99.90
3756;DHT22;1893;52.526;13.360;2023-01-28T01:07:43;-1.00;99.90
3756;DHT22;1893;52.526;13.360;2023-01-28T01:10:11;-1.00;99.90
3756;DHT22;1893;52.526;13.360;2023-01-28T01:12:38;-1.00;99.90
3756;DHT22;1893;52.526;13.360;2023-01-28T01:15:04;-1.00;99.90
3756;DHT22;1893;52.526;13.360;2023-01-28T01:17:37;-1.00;99.90
3756;DHT22;1893;52.526;13.360;2023-01-28T01:20:05;-1.00;99.90
3756;DHT22;1893;52.526;13.360;2023-01-28T01:22:35;-1.00;1.00
3756;DHT22;1893;52.526;13.360;2023-01-28T01:25:02;-0.90;99.90
3756;DHT22;1893;52.526;13.360;2023-01-28T01:27:28;-0.90;99.90
3756;DHT22;1893;52.526;13.360;2023-01-28T01:29:54;-0.80;99.90
3756;DHT22;1893;52.526;13.360;2023-01-28T01:32:21;-0.70;99.90
3756;DHT22;1893;52.526;13.360;2023-01-28T01:34:47;-0.60;99.90
3756;DHT22;1893;52.526;13.360;2023-01-28T01:37:13;-0.50;99.90
3756;DHT22;1893;52.526;13.360;2023-01-28T01:39:38;-0.50;99.90
3756;DHT22;1893;52.526;13.360;2023-01-28T01:42:04;-0.50;99.90
3756;DHT22;1893;52.526;13.360;2023-01-28T01:44:55;-0.30;99.90
3756;DHT22;1893;52.526;13.360;2023-01-28T01:47:41;-0.50;99.90
3756;DHT22;1893;52.526;13.360;2023-01-28T01:52:58;-0.40;99.90
3756;DHT22;1893;52.526;13.360;2023-01-28T01:55:27;-0.30;99.90
3756;DHT22;1893;52.526;13.360;2023-01-28T01:57:54;-0.20;99.90
3756;DHT22;1893;52.526;13.360;2023-01-28T02:00:22;-0.20;99.90
3756;DHT22;1893;52.526;13.360;2023-01-28T02:02:49;-0.20;99.90
3756;DHT22;1893;52.526;13.360;2023-01-28T02:05:18;-0.20;99.90
3756;DHT22;1893;52.526;13.360;2023-01-28T02:07:45;-0.10;99.90
3756;DHT22;1893;52.526;13.360;2023-01-28T02:10:12;-0.10;99.90
3756;DHT22;1893;52.526;13.360;2023-01-28T02:12:44;-0.10;99.90
3756;DHT22;1893;52.526;13.360;2023-01-28T02:15:18;0.00;99.90
3756;DHT22;1893;52.526;13.360;2023-01-28T02:17:45;-0.10;99.90
3756;DHT22;1893;52.526;13.360;2023-01-28T02:20:15;-0.10;99.90
3756;DHT22;1893;52.526;13.360;2023-01-28T02:33:55;0.00;99.90
3756;DHT22;1893;52.526;13.360;2023-01-28T02:36:44;0.00;99.90
3756;DHT22;1893;52.526;13.360;2023-01-28T02:39:25;0.10;99.90
3756;DHT22;1893;52.526;13.360;2023-01-28T02:42:09;0.00;99.90
3756;DHT22;1893;52.526;13.360;2023-01-28T02:44:35;0.00;99.90
3756;DHT22;1893;52.526;13.360;2023-01-28T02:47:01;0.00;99.90
3756;DHT22;1893;52.526;13.360;2023-01-28T02:49:47;0.10;99.90
3756;DHT22;1893;52.526;13.360;2023-01-28T02:55:26;0.10;99.90
3756;DHT22;1893;52.526;13.360;2023-01-28T02:58:09;0.10;99.90
3756;DHT22;1893;52.526;13.360;2023-01-28T03:03:58;0.20;99.90
3756;DHT22;1893;52.526;13.360;2023-01-28T03:06:32;0.20;99.90
3756;DHT22;1893;52.526;13.360;2023-01-28T03:09:03;0.20;99.90
3756;DHT22;1893;52.526;13.360;2023-01-28T03:11:59;0.20;99.90
3756;DHT22;1893;52.526;13.360;2023-01-28T03:14:50;0.20;99.90
3756;DHT22;1893;52.526;13.360;2023-01-28T03:17:45;0.20;99.90
3756;DHT22;1893;52.526;13.360;2023-01-28T03:20:37;0.20;99.90
3756;DHT22;1893;52.526;13.360;2023-01-28T03:23:29;0.20;99.90
3756;DHT22;1893;52.526;13.360;2023-01-28T03:26:15;0.20;99.90
3756;DHT22;1893;52.526;13.360;2023-01-28T03:29:07;0.20;99.90
3756;DHT22;1893;52.526;13.360;2023-01-28T03:31:53;0.20;99.90
3756;DHT22;1893;52.526;13.360;2023-01-28T03:34:37;0.20;99.90
3756;DHT22;1893;52.526;13.360;2023-01-28T03:37:22;0.20;99.90
3756;DHT22;1893;52.526;13.360;2023-01-28T03:39:48;0.20;99.90
3756;DHT22;1893;52.526;13.360;2023-01-28T03:42:14;0.20;99.90
3756;DHT22;1893;52.526;13.360;2023-01-28T03:44:40;0.30;99.90
3756;DHT22;1893;52.526;13.360;2023-01-28T03:47:23;0.30;99.90
3756;DHT22;1893;52.526;13.360;2023-01-28T03:49:51;0.30;99.90
3756;DHT22;1893;52.526;13.360;2023-01-28T03:52:26;0.30;99.90
3756;DHT22;1893;52.526;13.360;2023-01-28T03:54:51;0.30;99.90
3756;DHT22;1893;52.526;13.360;2023-01-28T03:57:22;0.30;99.90
3756;DHT22;1893;52.526;13.360;2023-01-28T03:59:48;0.30;99.90
3756;DHT22;1893;52.526;13.360;2023-01-28T04:02:14;0.30;99.90
3756;DHT22;1893;52.526;13.360;2023-01-28T04:04:40;0.30;99.90
3756;DHT22;1893;52.526;13.360;2023-01-28T04:07:07;0.40;99.90
3756;DHT22;1893;52.526;13.360;2023-01-28T04:09:36;0.40;99.90
3756;DHT22;1893;52.526;13.360;2023-01-28T04:12:02;0.40;99.90
3756;DHT22;1893;52.526;13.360;2023-01-28T04:14:28;0.40;99.90
3756;DHT22;1893;52.526;13.360;2023-01-28T04:16:55;0.50;99.90
3756;DHT22;1893;52.526;13.360;2023-01-28T04:19:20;0.50;99.90
3756;DHT22;1893;52.526;13.360;2023-01-28T04:21:46;0.50;99.90
3756;DHT22;1893;52.526;13.360;2023-01-28T04:24:14;0.50;99.90
3756;DHT22;1893;52.526;13.360;2023-01-28T04:26:40;0.50;99.90
3756;DHT22;1893;52.526;13.360;2023-01-28T04:29:05;0.50;99.90
3756;DHT22;1893;52.526;13.360;2023-01-28T04:31:32;0.60;99.90
3756;DHT22;1893;52.526;13.360;2023-01-28T04:33:57;0.60;99.90
3756;DHT22;1893;52.526;13.360;2023-01-28T04:36:24;0.60;99.90
3756;DHT22;1893;52.526;13.360;2023-01-28T04:38:50;0.60;99.90
3756;DHT22;1893;52.526;13.360;2023-01-28T04:41:15;0.60;99.90
3756;DHT22;1893;52.526;13.360;2023-01-28T04:43:41;0.60;99.90
3756;DHT22;1893;52.526;13.360;2023-01-28T04:46:07;0.60;99.90
3756;DHT22;1893;52.526;13.360;2023-01-28T04:48:33;0.60;99.90
3756;DHT22;1893;52.526;13.360;2023-01-28T04:50:59;0.60;99.90
3756;DHT22;1893;52.526;13.360;2023-01-28T04:53:25;0.60;99.90
3756;DHT22;1893;52.526;13.360;2023-01-28T04:55:51;0.60;99.90
3756;DHT22;1893;52.526;13.360;2023-01-28T04:58:16;0.70;99.90
3756;DHT22;1893;52.526;13.360;2023-01-28T05:00:42;0.70;99.90
3756;DHT22;1893;52.526;13.360;2023-01-28T05:03:08;0.70;99.90
3756;DHT22;1893;52.526;13.360;2023-01-28T05:05:33;0.70;99.90
3756;DHT22;1893;52.526;13.360;2023-01-28T05:07:59;0.70;99.90
3756;DHT22;1893;52.526;13.360;2023-01-28T05:10:25;0.80;99.90
3756;DHT22;1893;52.526;13.360;2023-01-28T05:12:51;0.70;99.90
3756;DHT22;1893;52.526;13.360;2023-01-28T05:15:18;0.70;99.90
3756;DHT22;1893;52.526;13.360;2023-01-28T05:17:44;0.70;99.90
3756;DHT22;1893;52.526;13.360;2023-01-28T05:20:12;0.70;99.90
3756;DHT22;1893;52.526;13.360;2023-01-28T05:22:38;0.70;99.90
3756;DHT22;1893;52.526;13.360;2023-01-28T05:25:05;0.70;99.90
3756;DHT22;1893;52.526;13.360;2023-01-28T05:27:32;0.70;99.90
3756;DHT22;1893;52.526;13.360;2023-01-28T05:29:59;0.70;99.90
3756;DHT22;1893;52.526;13.360;2023-01-28T05:32:25;0.70;99.90
3756;DHT22;1893;52.526;13.360;2023-01-28T05:34:51;0.70;99.90
3756;DHT22;1893;52.526;13.360;2023-01-28T05:37:16;0.70;99.90
3756;DHT22;1893;52.526;13.360;2023-01-28T05:39:42;0.70;99.90
3756;DHT22;1893;52.526;13.360;2023-01-28T05:42:07;0.70;99.90
3756;DHT22;1893;52.526;13.360;2023-01-28T05:44:33;0.70;99.90
3756;DHT22;1893;52.526;13.360;2023-01-28T05:46:58;0.80;99.90
3756;DHT22;1893;52.526;13.360;2023-01-28T05:49:24;0.90;99.90
3756;DHT22;1893;52.526;13.360;2023-01-28T05:51:51;0.90;99.90
3756;DHT22;1893;52.526;13.360;2023-01-28T05:54:17;0.90;99.90
3756;DHT22;1893;52.526;13.360;2023-01-28T05:56:43;0.90;99.90
3756;DHT22;1893;52.526;13.360;2023-01-28T05:59:11;1.00;99.90
3756;DHT22;1893;52.526;13.360;2023-01-28T06:01:37;0.90;99.90
3756;DHT22;1893;52.526;13.360;2023-01-28T06:04:03;0.90;99.90
3756;DHT22;1893;52.526;13.360;2023-01-28T06:06:29;0.90;99.90
3756;DHT22;1893;52.526;13.360;2023-01-28T06:08:55;0.90;99.90
3756;DHT22;1893;52.526;13.360;2023-01-28T06:11:20;0.90;99.90
3756;DHT22;1893;52.526;13.360;2023-01-28T06:13:46;0.90;99.90
3756;DHT22;1893;52.526;13.360;2023-01-28T06:16:12;0.90;99.90
3756;DHT22;1893;52.526;13.360;2023-01-28T06:18:37;0.90;99.90
3756;DHT22;1893;52.526;13.360;2023-01-28T06:21:03;1.00;99.90
3756;DHT22;1893;52.526;13.360;2023-01-28T06:23:29;1.00;99.90
3756;DHT22;1893;52.526;13.360;2023-01-28T06:25:55;1.10;99.90
3756;DHT22;1893;52.526;13.360;2023-01-28T06:28:21;1.00;99.90
3756;DHT22;1893;52.526;13.360;2023-01-28T06:30:48;1.10;99.90
3756;DHT22;1893;52.526;13.360;2023-01-28T06:33:14;1.10;99.90
3756;DHT22;1893;52.526;13.360;2023-01-28T06:35:40;1.10;99.90
3756;DHT22;1893;52.526;13.360;2023-01-28T06:38:06;1.10;99.90
3756;DHT22;1893;52.526;13.360;2023-01-28T06:40:31;1.10;99.90
3756;DHT22;1893;52.526;13.360;2023-01-28T06:42:57;1.00;99.90
3756;DHT22;1893;52.526;13.360;2023-01-28T06:45:23;1.10;99.90
3756;DHT22;1893;52.526;13.360;2023-01-28T06:47:48;1.10;99.90
3756;DHT22;1893;52.526;13.360;2023-01-28T06:50:14;1.10;99.90
3756;DHT22;1893;52.526;13.360;2023-01-28T06:52:39;1.00;99.90
3756;DHT22;1893;52.526;13.360;2023-01-28T06:55:06;1.10;99.90
3756;DHT22;1893;52.526;13.360;2023-01-28T06:57:32;1.00;99.90
3756;DHT22;1893;52.526;13.360;2023-01-28T06:59:58;1.10;99.90
3756;DHT22;1893;52.526;13.360;2023-01-28T07:02:23;1.10;99.90
3756;DHT22;1893;52.526;13.360;2023-01-28T07:04:49;1.10;99.90
3756;DHT22;1893;52.526;13.360;2023-01-28T07:07:14;1.10;99.90
3756;DHT22;1893;52.526;13.360;2023-01-28T07:09:40;1.10;99.90
3756;DHT22;1893;52.526;13.360;2023-01-28T07:12:06;1.10;99.90
3756;DHT22;1893;52.526;13.360;2023-01-28T07:14:32;1.10;99.90
3756;DHT22;1893;52.526;13.360;2023-01-28T07:16:57;1.10;99.90
3756;DHT22;1893;52.526;13.360;2023-01-28T07:19:23;1.10;99.90
3756;DHT22;1893;52.526;13.360;2023-01-28T07:21:48;1.10;99.90
3756;DHT22;1893;52.526;13.360;2023-01-28T07:24:14;1.10;99.90
3756;DHT22;1893;52.526;13.360;2023-01-28T07:26:40;1.10;99.90
3756;DHT22;1893;52.526;13.360;2023-01-28T07:29:05;1.10;99.90
3756;DHT22;1893;52.526;13.360;2023-01-28T07:31:31;1.10;99.90
3756;DHT22;1893;52.526;13.360;2023-01-28T07:33:56;1.20;99.90
3756;DHT22;1893;52.526;13.360;2023-01-28T07:36:22;1.20;99.90
3756;DHT22;1893;52.526;13.360;2023-01-28T07:38:48;1.10;99.90
3756;DHT22;1893;52.526;13.360;2023-01-28T07:41:13;1.10;99.90
3756;DHT22;1893;52.526;13.360;2023-01-28T07:43:39;1.20;99.90
3756;DHT22;1893;52.526;13.360;2023-01-28T07:46:05;1.20;99.90
3756;DHT22;1893;52.526;13.360;2023-01-28T07:48:30;1.20;99.90
3756;DHT22;1893;52.526;13.360;2023-01-28T07:50:59;1.30;99.90
3756;DHT22;1893;52.526;13.360;2023-01-28T07:53:25;1.30;99.90
3756;DHT22;1893;52.526;13.360;2023-01-28T07:55:51;1.30;99.90
3756;DHT22;1893;52.526;13.360;2023-01-28T07:58:17;1.30;99.90
3756;DHT22;1893;52.526;13.360;2023-01-28T08:00:42;1.30;99.90
3756;DHT22;1893;52.526;13.360;2023-01-28T08:03:12;1.30;99.90
3756;DHT22;1893;52.526;13.360;2023-01-28T08:05:46;1.30;99.90
3756;DHT22;1893;52.526;13.360;2023-01-28T08:08:13;1.40;99.90
3756;DHT22;1893;52.526;13.360;2023-01-28T08:10:38;1.40;99.90
3756;DHT22;1893;52.526;13.360;2023-01-28T08:13:05;1.40;99.90
3756;DHT22;1893;52.526;13.360;2023-01-28T08:15:31;1.40;99.90
3756;DHT22;1893;52.526;13.360;2023-01-28T08:17:57;1.40;99.90
3756;DHT22;1893;52.526;13.360;2023-01-28T08:20:25;1.50;99.90
3756;DHT22;1893;52.526;13.360;2023-01-28T08:22:50;1.60;99.90
3756;DHT22;1893;52.526;13.360;2023-01-28T08:25:16;1.50;99.90
3756;DHT22;1893;52.526;13.360;2023-01-28T08:27:42;1.60;99.90
3756;DHT22;1893;52.526;13.360;2023-01-28T08:30:08;1.60;99.90
3756;DHT22;1893;52.526;13.360;2023-01-28T08:32:35;1.50;99.90
3756;DHT22;1893;52.526;13.360;2023-01-28T08:35:01;1.60;99.90
3756;DHT22;1893;52.526;13.360;2023-01-28T08:37:27;1.70;99.90
3756;DHT22;1893;52.526;13.360;2023-01-28T08:39:52;1.60;99.90
3756;DHT22;1893;52.526;13.360;2023-01-28T08:42:18;1.60;99.90
3756;DHT22;1893;52.526;13.360;2023-01-28T08:44:44;1.60;99.90
3756;DHT22;1893;52.526;13.360;2023-01-28T08:47:10;1.70;99.90
3756;DHT22;1893;52.526;13.360;2023-01-28T08:49:35;1.70;99.90
3756;DHT22;1893;52.526;13.360;2023-01-28T08:52:01;1.70;99.90
3756;DHT22;1893;52.526;13.360;2023-01-28T08:54:26;1.70;99.90
3756;DHT22;1893;52.526;13.360;2023-01-28T08:56:52;1.60;99.90
3756;DHT22;1893;52.526;13.360;2023-01-28T08:59:17;1.70;99.90
3756;DHT22;1893;52.526;13.360;2023-01-28T09:01:43;1.70;99.90
3756;DHT22;1893;52.526;13.360;2023-01-28T09:04:09;1.70;99.90
3756;DHT22;1893;52.526;13.360;2023-01-28T09:06:35;1.80;99.90
3756;DHT22;1893;52.526;13.360;2023-01-28T09:09:00;1.80;99.90
3756;DHT22;1893;52.526;13.360;2023-01-28T09:11:27;1.80;99.90
3756;DHT22;1893;52.526;13.360;2023-01-28T09:13:56;1.90;99.90
3756;DHT22;1893;52.526;13.360;2023-01-28T09:16:22;1.90;99.90
3756;DHT22;1893;52.526;13.360;2023-01-28T09:18:47;1.90;99.90
3756;DHT22;1893;52.526;13.360;2023-01-28T09:21:13;2.00;99.90
3756;DHT22;1893;52.526;13.360;2023-01-28T09:23:39;1.90;99.90
3756;DHT22;1893;52.526;13.360;2023-01-28T09:26:05;1.90;99.90
3756;DHT22;1893;52.526;13.360;2023-01-28T09:28:31;1.90;99.90
3756;DHT22;1893;52.526;13.360;2023-01-28T09:31:05;1.90;99.90
3756;DHT22;1893;52.526;13.360;2023-01-28T09:33:32;1.90;99.90
3756;DHT22;1893;52.526;13.360;2023-01-28T09:36:05;1.90;99.90
3756;DHT22;1893;52.526;13.360;2023-01-28T09:38:32;2.00;99.90
3756;DHT22;1893;52.526;13.360;2023-01-28T09:40:59;2.10;99.90
3756;DHT22;1893;52.526;13.360;2023-01-28T09:46:03;2.10;99.90
3756;DHT22;1893;52.526;13.360;2023-01-28T09:48:37;2.10;99.90
3756;DHT22;1893;52.526;13.360;2023-01-28T09:51:08;2.10;99.90
3756;DHT22;1893;52.526;13.360;2023-01-28T09:53:40;2.10;99.90
3756;DHT22;1893;52.526;13.360;2023-01-28T09:56:14;2.10;99.90
3756;DHT22;1893;52.526;13.360;2023-01-28T09:58:41;2.10;99.90
3756;DHT22;1893;52.526;13.360;2023-01-28T10:04:01;2.20;99.90
3756;DHT22;1893;52.526;13.360;2023-01-28T10:15:26;2.10;99.90
3756;DHT22;1893;52.526;13.360;2023-01-28T10:17:57;2.10;99.90
3756;DHT22;1893;52.526;13.360;2023-01-28T10:20:32;2.10;99.90
3756;DHT22;1893;52.526;13.360;2023-01-28T10:23:25;2.10;99.90
3756;DHT22;1893;52.526;13.360;2023-01-28T10:25:55;2.10;99.90
3756;DHT22;1893;52.526;13.360;2023-01-28T10:28:26;2.20;99.90
3756;DHT22;1893;52.526;13.360;2023-01-28T10:30:52;2.20;99.90
3756;DHT22;1893;52.526;13.360;2023-01-28T10:33:36;2.20;99.90
3756;DHT22;1893;52.526;13.360;2023-01-28T10:36:03;2.20;99.90
3756;DHT22;1893;52.526;13.360;2023-01-28T10:38:30;2.20;99.90
3756;DHT22;1893;52.526;13.360;2023-01-28T10:41:00;2.30;99.90
3756;DHT22;1893;52.526;13.360;2023-01-28T10:43:30;2.20;99.90
3756;DHT22;1893;52.526;13.360;2023-01-28T10:46:02;2.20;99.90
3756;DHT22;1893;52.526;13.360;2023-01-28T10:48:32;2.30;99.90
3756;DHT22;1893;52.526;13.360;2023-01-28T10:51:01;2.30;99.90
3756;DHT22;1893;52.526;13.360;2023-01-28T10:53:43;2.40;99.90
3756;DHT22;1893;52.526;13.360;2023-01-28T10:56:17;2.30;99.90
3756;DHT22;1893;52.526;13.360;2023-01-28T10:59:00;2.30;99.90
3756;DHT22;1893;52.526;13.360;2023-01-28T11:01:41;2.20;99.90
3756;DHT22;1893;52.526;13.360;2023-01-28T11:04:16;2.20;99.90
3756;DHT22;1893;52.526;13.360;2023-01-28T11:06:51;2.10;99.90
3756;DHT22;1893;52.526;13.360;2023-01-28T11:09:22;2.20;99.90
3756;DHT22;1893;52.526;13.360;2023-01-28T11:11:47;2.20;99.90
3756;DHT22;1893;52.526;13.360;2023-01-28T11:14:21;2.40;99.90
3756;DHT22;1893;52.526;13.360;2023-01-28T11:16:48;2.30;99.90
3756;DHT22;1893;52.526;13.360;2023-01-28T11:19:14;2.30;99.90
3756;DHT22;1893;52.526;13.360;2023-01-28T11:21:48;2.50;99.90
3756;DHT22;1893;52.526;13.360;2023-01-28T11:24:18;2.30;99.90
3756;DHT22;1893;52.526;13.360;2023-01-28T11:26:49;2.30;99.90
3756;DHT22;1893;52.526;13.360;2023-01-28T11:29:30;2.10;99.90
3756;DHT22;1893;52.526;13.360;2023-01-28T11:31:57;1.80;99.90
3756;DHT22;1893;52.526;13.360;2023-01-28T11:34:33;1.80;99.90
3756;DHT22;1893;52.526;13.360;2023-01-28T11:37:09;1.70;99.90
3756;DHT22;1893;52.526;13.360;2023-01-28T11:39:36;1.70;99.90
3756;DHT22;1893;52.526;13.360;2023-01-28T11:44:34;1.70;99.90
3756;DHT22;1893;52.526;13.360;2023-01-28T11:52:45;2.00;99.90
3756;DHT22;1893;52.526;13.360;2023-01-28T11:55:42;2.80;99.90
3756;DHT22;1893;52.526;13.360;2023-01-28T11:58:40;2.80;99.90
3756;DHT22;1893;52.526;13.360;2023-01-28T12:01:23;2.40;99.90
3756;DHT22;1893;52.526;13.360;2023-01-28T12:07:24;2.20;99.90
3756;DHT22;1893;52.526;13.360;2023-01-28T12:09:59;2.10;99.90
3756;DHT22;1893;52.526;13.360;2023-01-28T12:12:52;1.80;99.90
3756;DHT22;1893;52.526;13.360;2023-01-28T12:15:39;1.80;99.90
3756;DHT22;1893;52.526;13.360;2023-01-28T12:21:10;2.00;99.90
3756;DHT22;1893;52.526;13.360;2023-01-28T12:26:38;2.00;99.90
3756;DHT22;1893;52.526;13.360;2023-01-28T12:32:17;2.10;99.90
3756;DHT22;1893;52.526;13.360;2023-01-28T12:42:55;2.00;99.90
3756;DHT22;1893;52.526;13.360;2023-01-28T12:46:11;2.00;99.90
3756;DHT22;1893;52.526;13.360;2023-01-28T12:48:32;2.00;99.90
3756;DHT22;1893;52.526;13.360;2023-01-28T12:51:21;1.70;99.90
3756;DHT22;1893;52.526;13.360;2023-01-28T12:56:36;1.80;99.90
3756;DHT22;1893;52.526;13.360;2023-01-28T12:59:19;1.70;99.90
3756;DHT22;1893;52.526;13.360;2023-01-28T13:02:23;1.80;99.90
3756;DHT22;1893;52.526;13.360;2023-01-28T13:05:27;1.80;99.90
3756;DHT22;1893;52.526;13.360;2023-01-28T13:07:50;1.90;99.90
3756;DHT22;1893;52.526;13.360;2023-01-28T13:10:26;2.10;99.90
3756;DHT22;1893;52.526;13.360;2023-01-28T13:12:54;2.10;99.90
3756;DHT22;1893;52.526;13.360;2023-01-28T13:15:21;2.10;99.90
3756;DHT22;1893;52.526;13.360;2023-01-28T13:18:00;2.00;99.90
3756;DHT22;1893;52.526;13.360;2023-01-28T13:23:04;2.20;99.90
3756;DHT22;1893;52.526;13.360;2023-01-28T13:25:32;2.30;99.90
3756;DHT22;1893;52.526;13.360;2023-01-28T13:28:01;2.40;99.90
3756;DHT22;1893;52.526;13.360;2023-01-28T13:30:45;2.50;99.90
3756;DHT22;1893;52.526;13.360;2023-01-28T13:33:32;2.50;99.90
3756;DHT22;1893;52.526;13.360;2023-01-28T13:36:13;2.40;99.90
3756;DHT22;1893;52.526;13.360;2023-01-28T13:38:41;2.20;99.90
3756;DHT22;1893;52.526;13.360;2023-01-28T13:41:07;2.20;99.90
3756;DHT22;1893;52.526;13.360;2023-01-28T13:46:00;2.20;99.90
3756;DHT22;1893;52.526;13.360;2023-01-28T13:54:05;2.00;99.90
3756;DHT22;1893;52.526;13.360;2023-01-28T13:57:02;1.90;99.90
3756;DHT22;1893;52.526;13.360;2023-01-28T14:05:55;1.90;99.90
3756;DHT22;1893;52.526;13.360;2023-01-28T14:19:46;2.00;99.90
3756;DHT22;1893;52.526;13.360;2023-01-28T14:22:18;2.10;99.90
3756;DHT22;1893;52.526;13.360;2023-01-28T14:24:45;2.10;99.90
3756;DHT22;1893;52.526;13.360;2023-01-28T14:27:18;2.10;99.90
3756;DHT22;1893;52.526;13.360;2023-01-28T14:32:34;2.00;99.90
3756;DHT22;1893;52.526;13.360;2023-01-28T14:35:07;2.00;99.90
3756;DHT22;1893;52.526;13.360;2023-01-28T14:37:33;2.10;99.90
3756;DHT22;1893;52.526;13.360;2023-01-28T14:40:06;2.00;99.90
3756;DHT22;1893;52.526;13.360;2023-01-28T14:42:43;2.10;99.90
3756;DHT22;1893;52.526;13.360;2023-01-28T14:59:24;2.00;99.90
3756;DHT22;1893;52.526;13.360;2023-01-28T15:01:55;1.90;99.90
3756;DHT22;1893;52.526;13.360;2023-01-28T15:04:27;1.90;99.90
3756;DHT22;1893;52.526;13.360;2023-01-28T15:06:53;1.90;99.90
3756;DHT22;1893;52.526;13.360;2023-01-28T15:09:20;1.90;99.90
3756;DHT22;1893;52.526;13.360;2023-01-28T15:11:47;1.90;99.90
3756;DHT22;1893;52.526;13.360;2023-01-28T15:14:31;1.80;99.90
3756;DHT22;1893;52.526;13.360;2023-01-28T15:16:58;1.80;99.90
3756;DHT22;1893;52.526;13.360;2023-01-28T15:19:27;1.90;99.90
3756;DHT22;1893;52.526;13.360;2023-01-28T15:21:58;1.80;99.90
3756;DHT22;1893;52.526;13.360;2023-01-28T15:24:25;1.70;99.90
3756;DHT22;1893;52.526;13.360;2023-01-28T15:26:51;1.70;99.90
3756;DHT22;1893;52.526;13.360;2023-01-28T15:31:49;1.80;99.90
3756;DHT22;1893;52.526;13.360;2023-01-28T15:34:18;1.70;99.90
3756;DHT22;1893;52.526;13.360;2023-01-28T15:36:44;1.80;99.90
3756;DHT22;1893;52.526;13.360;2023-01-28T15:39:17;1.70;99.90
3756;DHT22;1893;52.526;13.360;2023-01-28T15:41:47;1.70;99.90
3756;DHT22;1893;52.526;13.360;2023-01-28T15:44:21;1.80;99.90
3756;DHT22;1893;52.526;13.360;2023-01-28T15:47:00;1.70;99.90
3756;DHT22;1893;52.526;13.360;2023-01-28T15:49:35;1.70;99.90
3756;DHT22;1893;52.526;13.360;2023-01-28T15:52:01;1.60;99.90
3756;DHT22;1893;52.526;13.360;2023-01-28T15:54:27;1.60;99.90
3756;DHT22;1893;52.526;13.360;2023-01-28T15:56:55;1.60;99.90
3756;DHT22;1893;52.526;13.360;2023-01-28T15:59:28;1.60;99.90
3756;DHT22;1893;52.526;13.360;2023-01-28T16:02:19;1.60;99.90
3756;DHT22;1893;52.526;13.360;2023-01-28T16:05:05;1.70;99.90
3756;DHT22;1893;52.526;13.360;2023-01-28T16:07:43;1.50;99.90
3756;DHT22;1893;52.526;13.360;2023-01-28T16:10:19;1.40;99.90
3756;DHT22;1893;52.526;13.360;2023-01-28T16:13:15;1.50;99.90
3756;DHT22;1893;52.526;13.360;2023-01-28T16:15:38;1.40;99.90
3756;DHT22;1893;52.526;13.360;2023-01-28T16:18:28;1.40;99.90
3756;DHT22;1893;52.526;13.360;2023-01-28T16:20:54;1.40;99.90
3756;DHT22;1893;52.526;13.360;2023-01-28T16:23:22;1.40;99.90
3756;DHT22;1893;52.526;13.360;2023-01-28T16:25:59;1.40;99.90
3756;DHT22;1893;52.526;13.360;2023-01-28T16:28:25;1.40;99.90
3756;DHT22;1893;52.526;13.360;2023-01-28T16:30:51;1.50;99.90
3756;DHT22;1893;52.526;13.360;2023-01-28T16:33:20;1.50;99.90
3756;DHT22;1893;52.526;13.360;2023-01-28T16:35:46;1.50;99.90
3756;DHT22;1893;52.526;13.360;2023-01-28T16:38:12;1.40;99.90
3756;DHT22;1893;52.526;13.360;2023-01-28T16:40:42;1.30;99.90
3756;DHT22;1893;52.526;13.360;2023-01-28T16:43:12;1.30;99.90
3756;DHT22;1893;52.526;13.360;2023-01-28T16:45:38;1.40;99.90
3756;DHT22;1893;52.526;13.360;2023-01-28T16:48:05;1.40;99.90
3756;DHT22;1893;52.526;13.360;2023-01-28T16:50:32;1.40;99.90
3756;DHT22;1893;52.526;13.360;2023-01-28T16:52:58;1.30;99.90
3756;DHT22;1893;52.526;13.360;2023-01-28T16:55:24;1.30;99.90
3756;DHT22;1893;52.526;13.360;2023-01-28T16:57:53;1.30;99.90
3756;DHT22;1893;52.526;13.360;2023-01-28T17:00:24;1.30;99.90
3756;DHT22;1893;52.526;13.360;2023-01-28T17:02:51;1.30;99.90
3756;DHT22;1893;52.526;13.360;2023-01-28T17:05:17;1.20;99.90
3756;DHT22;1893;52.526;13.360;2023-01-28T17:07:45;1.20;99.90
3756;DHT22;1893;52.526;13.360;2023-01-28T17:10:13;1.20;99.90
3756;DHT22;1893;52.526;13.360;2023-01-28T17:12:39;1.30;99.90
3756;DHT22;1893;52.526;13.360;2023-01-28T17:15:05;1.30;99.90
3756;DHT22;1893;52.526;13.360;2023-01-28T17:17:31;1.30;99.90
3756;DHT22;1893;52.526;13.360;2023-01-28T17:19:57;1.20;99.90
3756;DHT22;1893;52.526;13.360;2023-01-28T17:22:23;1.10;99.90
3756;DHT22;1893;52.526;13.360;2023-01-28T17:24:48;1.20;99.90
3756;DHT22;1893;52.526;13.360;2023-01-28T17:27:14;1.20;99.90
3756;DHT22;1893;52.526;13.360;2023-01-28T17:29:40;1.10;99.90
3756;DHT22;1893;52.526;13.360;2023-01-28T17:32:05;1.10;99.90
3756;DHT22;1893;52.526;13.360;2023-01-28T17:34:31;1.10;99.90
3756;DHT22;1893;52.526;13.360;2023-01-28T17:36:56;1.10;99.90
3756;DHT22;1893;52.526;13.360;2023-01-28T17:39:22;1.10;99.90
3756;DHT22;1893;52.526;13.360;2023-01-28T17:41:48;1.10;99.90
3756;DHT22;1893;52.526;13.360;2023-01-28T17:44:17;1.00;99.90
3756;DHT22;1893;52.526;13.360;2023-01-28T17:46:43;1.00;99.90
3756;DHT22;1893;52.526;13.360;2023-01-28T17:49:09;1.00;99.90
3756;DHT22;1893;52.526;13.360;2023-01-28T17:51:35;0.90;99.90
3756;DHT22;1893;52.526;13.360;2023-01-28T17:54:01;0.90;99.90
3756;DHT22;1893;52.526;13.360;2023-01-28T17:56:27;0.90;99.90
3756;DHT22;1893;52.526;13.360;2023-01-28T17:58:56;0.90;99.90
3756;DHT22;1893;52.526;13.360;2023-01-28T18:01:23;0.90;99.90
3756;DHT22;1893;52.526;13.360;2023-01-28T18:03:49;0.80;99.90
3756;DHT22;1893;52.526;13.360;2023-01-28T18:06:15;0.80;99.90
3756;DHT22;1893;52.526;13.360;2023-01-28T18:08:41;0.90;99.90
3756;DHT22;1893;52.526;13.360;2023-01-28T18:11:08;0.90;99.90